sensor_id;sensor_type;location;lat;lon;timestamp;temperature;humidity
42683;DHT22;28293;50.930;3.464;2023-07-13T00:01:27;16.90;78.00
42683;DHT22;28293;50.930;3.464;2023-07-13T00:03:53;16.90;78.00
42683;DHT22;28293;50.930;3.464;2023-07-13T00:06:19;16.90;78.10
42683;DHT22;28293;50.930;3.464;2023-07-13T00:08:45;16.80;78.30
42683;DHT22;28293;50.930;3.464;2023-07-13T00:11:13;16.80;78.40
42683;DHT22;28293;50.930;3.464;2023-07-13T00:13:40;16.80;79.00
42683;DHT22;28293;50.930;3.464;2023-07-13T00:16:07;16.70;78.80
42683;DHT22;28293;50.930;3.464;2023-07-13T00:18:32;16.70;79.30
42683;DHT22;28293;50.930;3.464;2023-07-13T00:20:58;16.60;79.20
42683;DHT22;28293;50.930;3.464;2023-07-13T00:23:40;16.70;79.40
42683;DHT22;28293;50.930;3.464;2023-07-13T00:26:08;16.70;79.30
42683;DHT22;28293;50.930;3.464;2023-07-13T00:28:34;16.60;79.60
42683;DHT22;28293;50.930;3.464;2023-07-13T00:31:01;16.60;79.50
42683;DHT22;28293;50.930;3.464;2023-07-13T00:33:28;16.70;79.60
42683;DHT22;28293;50.930;3.464;2023-07-13T00:35:55;16.70;79.60
42683;DHT22;28293;50.930;3.464;2023-07-13T00:38:21;16.70;79.90
42683;DHT22;28293;50.930;3.464;2023-07-13T00:40:47;16.60;79.80
42683;DHT22;28293;50.930;3.464;2023-07-13T00:43:21;16.60;79.80
42683;DHT22;28293;50.930;3.464;2023-07-13T00:48:20;16.60;80.20
42683;DHT22;28293;50.930;3.464;2023-07-13T00:50:49;16.60;80.30
42683;DHT22;28293;50.930;3.464;2023-07-13T00:53:16;16.60;80.20
42683;DHT22;28293;50.930;3.464;2023-07-13T00:55:43;16.60;80.20
42683;DHT22;28293;50.930;3.464;2023-07-13T00:58:09;16.60;80.30
42683;DHT22;28293;50.930;3.464;2023-07-13T01:00:36;16.60;80.30
42683;DHT22;28293;50.930;3.464;2023-07-13T01:03:04;16.60;80.20
42683;DHT22;28293;50.930;3.464;2023-07-13T01:05:31;16.60;80.70
42683;DHT22;28293;50.930;3.464;2023-07-13T01:07:59;16.50;80.90
42683;DHT22;28293;50.930;3.464;2023-07-13T01:10:26;16.50;81.10
42683;DHT22;28293;50.930;3.464;2023-07-13T01:12:52;16.50;81.30
42683;DHT22;28293;50.930;3.464;2023-07-13T01:15:44;16.40;81.60
42683;DHT22;28293;50.930;3.464;2023-07-13T01:18:17;16.40;81.80
42683;DHT22;28293;50.930;3.464;2023-07-13T01:21:01;16.40;81.80
42683;DHT22;28293;50.930;3.464;2023-07-13T01:23:29;16.40;81.80
42683;DHT22;28293;50.930;3.464;2023-07-13T01:25:56;16.40;81.70
42683;DHT22;28293;50.930;3.464;2023-07-13T01:28:23;16.40;81.80
42683;DHT22;28293;50.930;3.464;2023-07-13T01:30:53;16.30;82.10
42683;DHT22;28293;50.930;3.464;2023-07-13T01:33:19;16.30;82.10
42683;DHT22;28293;50.930;3.464;2023-07-13T01:35:46;16.40;82.10
42683;DHT22;28293;50.930;3.464;2023-07-13T01:38:17;16.30;82.20
42683;DHT22;28293;50.930;3.464;2023-07-13T01:40:44;16.30;82.20
42683;DHT22;28293;50.930;3.464;2023-07-13T01:43:10;16.40;82.20
42683;DHT22;28293;50.930;3.464;2023-07-13T01:45:35;16.30;82.20
42683;DHT22;28293;50.930;3.464;2023-07-13T01:48:01;16.30;82.30
42683;DHT22;28293;50.930;3.464;2023-07-13T01:50:27;16.30;82.40
42683;DHT22;28293;50.930;3.464;2023-07-13T01:52:53;16.30;82.60
42683;DHT22;28293;50.930;3.464;2023-07-13T01:55:19;16.30;82.80
42683;DHT22;28293;50.930;3.464;2023-07-13T01:57:45;16.30;82.80
42683;DHT22;28293;50.930;3.464;2023-07-13T02:00:13;16.30;82.70
42683;DHT22;28293;50.930;3.464;2023-07-13T02:02:39;16.30;82.60
42683;DHT22;28293;50.930;3.464;2023-07-13T02:05:05;16.30;82.70
42683;DHT22;28293;50.930;3.464;2023-07-13T02:07:31;16.30;82.90
42683;DHT22;28293;50.930;3.464;2023-07-13T02:09:57;16.20;83.00
42683;DHT22;28293;50.930;3.464;2023-07-13T02:12:23;16.20;83.00
42683;DHT22;28293;50.930;3.464;2023-07-13T02:14:49;16.20;83.10
42683;DHT22;28293;50.930;3.464;2023-07-13T02:17:14;16.30;83.00
42683;DHT22;28293;50.930;3.464;2023-07-13T02:19:40;16.20;82.90
42683;DHT22;28293;50.930;3.464;2023-07-13T02:22:06;16.20;82.90
42683;DHT22;28293;50.930;3.464;2023-07-13T02:24:32;16.20;83.10
42683;DHT22;28293;50.930;3.464;2023-07-13T02:26:57;16.20;83.00
42683;DHT22;28293;50.930;3.464;2023-07-13T02:29:23;16.20;83.00
42683;DHT22;28293;50.930;3.464;2023-07-13T02:31:49;16.10;83.00
42683;DHT22;28293;50.930;3.464;2023-07-13T02:34:15;16.20;83.00
42683;DHT22;28293;50.930;3.464;2023-07-13T02:36:41;16.10;83.20
42683;DHT22;28293;50.930;3.464;2023-07-13T02:39:07;16.10;83.30
42683;DHT22;28293;50.930;3.464;2023-07-13T02:41:33;16.10;83.30
42683;DHT22;28293;50.930;3.464;2023-07-13T02:43:59;16.10;83.30
42683;DHT22;28293;50.930;3.464;2023-07-13T02:46:38;16.10;83.40
42683;DHT22;28293;50.930;3.464;2023-07-13T02:49:04;16.10;83.40
42683;DHT22;28293;50.930;3.464;2023-07-13T02:51:30;16.10;83.40
42683;DHT22;28293;50.930;3.464;2023-07-13T02:53:55;16.10;83.40
42683;DHT22;28293;50.930;3.464;2023-07-13T02:56:26;16.10;83.50
42683;DHT22;28293;50.930;3.464;2023-07-13T02:58:53;16.10;83.50
42683;DHT22;28293;50.930;3.464;2023-07-13T03:01:20;16.10;83.50
42683;DHT22;28293;50.930;3.464;2023-07-13T03:03:47;16.00;83.40
42683;DHT22;28293;50.930;3.464;2023-07-13T03:06:13;16.10;83.50
42683;DHT22;28293;50.930;3.464;2023-07-13T03:08:39;16.10;83.50
42683;DHT22;28293;50.930;3.464;2023-07-13T03:11:18;16.10;83.60
42683;DHT22;28293;50.930;3.464;2023-07-13T03:13:44;16.10;83.70
42683;DHT22;28293;50.930;3.464;2023-07-13T03:16:10;16.10;83.60
42683;DHT22;28293;50.930;3.464;2023-07-13T03:18:37;16.10;83.70
42683;DHT22;28293;50.930;3.464;2023-07-13T03:21:04;16.20;83.50
42683;DHT22;28293;50.930;3.464;2023-07-13T03:23:30;16.20;83.30
42683;DHT22;28293;50.930;3.464;2023-07-13T03:26:24;16.20;83.10
42683;DHT22;28293;50.930;3.464;2023-07-13T03:28:50;16.10;83.30
42683;DHT22;28293;50.930;3.464;2023-07-13T03:31:19;16.10;83.50
42683;DHT22;28293;50.930;3.464;2023-07-13T03:33:45;16.20;83.50
42683;DHT22;28293;50.930;3.464;2023-07-13T03:36:15;16.10;83.20
42683;DHT22;28293;50.930;3.464;2023-07-13T03:38:45;16.10;83.30
42683;DHT22;28293;50.930;3.464;2023-07-13T03:41:11;16.10;83.30
42683;DHT22;28293;50.930;3.464;2023-07-13T03:43:37;16.10;83.20
42683;DHT22;28293;50.930;3.464;2023-07-13T03:46:03;16.10;83.20
42683;DHT22;28293;50.930;3.464;2023-07-13T03:48:28;16.10;83.30
42683;DHT22;28293;50.930;3.464;2023-07-13T03:50:54;16.10;83.40
42683;DHT22;28293;50.930;3.464;2023-07-13T03:53:20;16.10;83.40
42683;DHT22;28293;50.930;3.464;2023-07-13T03:55:45;16.10;83.30
42683;DHT22;28293;50.930;3.464;2023-07-13T03:58:33;16.20;83.40
42683;DHT22;28293;50.930;3.464;2023-07-13T04:01:00;16.20;83.40
42683;DHT22;28293;50.930;3.464;2023-07-13T04:03:26;16.20;83.30
42683;DHT22;28293;50.930;3.464;2023-07-13T04:05:56;16.30;83.10
42683;DHT22;28293;50.930;3.464;2023-07-13T04:08:29;16.30;83.20
42683;DHT22;28293;50.930;3.464;2023-07-13T04:10:55;16.40;83.10
42683;DHT22;28293;50.930;3.464;2023-07-13T04:13:21;16.40;82.90
42683;DHT22;28293;50.930;3.464;2023-07-13T04:15:47;16.40;83.00
42683;DHT22;28293;50.930;3.464;2023-07-13T04:18:12;16.40;82.90
42683;DHT22;28293;50.930;3.464;2023-07-13T04:20:38;16.50;82.90
42683;DHT22;28293;50.930;3.464;2023-07-13T04:23:04;16.50;82.90
42683;DHT22;28293;50.930;3.464;2023-07-13T04:25:29;16.50;82.90
42683;DHT22;28293;50.930;3.464;2023-07-13T04:27:55;16.50;83.00
42683;DHT22;28293;50.930;3.464;2023-07-13T04:30:22;16.60;82.90
42683;DHT22;28293;50.930;3.464;2023-07-13T04:32:49;16.60;82.90
42683;DHT22;28293;50.930;3.464;2023-07-13T04:35:15;16.60;82.70
42683;DHT22;28293;50.930;3.464;2023-07-13T04:37:41;16.60;82.70
42683;DHT22;28293;50.930;3.464;2023-07-13T04:40:07;16.70;82.50
42683;DHT22;28293;50.930;3.464;2023-07-13T04:42:37;16.60;82.40
42683;DHT22;28293;50.930;3.464;2023-07-13T04:45:02;16.70;82.50
42683;DHT22;28293;50.930;3.464;2023-07-13T04:47:30;16.70;82.50
42683;DHT22;28293;50.930;3.464;2023-07-13T04:49:56;16.80;82.50
42683;DHT22;28293;50.930;3.464;2023-07-13T04:52:23;16.80;82.40
42683;DHT22;28293;50.930;3.464;2023-07-13T04:54:48;16.90;82.30
42683;DHT22;28293;50.930;3.464;2023-07-13T04:57:14;16.90;82.20
42683;DHT22;28293;50.930;3.464;2023-07-13T04:59:40;17.00;81.90
42683;DHT22;28293;50.930;3.464;2023-07-13T05:02:05;17.10;81.60
42683;DHT22;28293;50.930;3.464;2023-07-13T05:04:31;17.10;81.70
42683;DHT22;28293;50.930;3.464;2023-07-13T05:06:57;17.10;81.40
42683;DHT22;28293;50.930;3.464;2023-07-13T05:09:23;17.10;81.70
42683;DHT22;28293;50.930;3.464;2023-07-13T05:11:48;17.20;81.60
42683;DHT22;28293;50.930;3.464;2023-07-13T05:14:14;17.20;81.60
42683;DHT22;28293;50.930;3.464;2023-07-13T05:16:42;17.30;81.60
42683;DHT22;28293;50.930;3.464;2023-07-13T05:19:08;17.40;81.30
42683;DHT22;28293;50.930;3.464;2023-07-13T05:21:34;17.40;81.30
42683;DHT22;28293;50.930;3.464;2023-07-13T05:24:00;17.50;81.20
42683;DHT22;28293;50.930;3.464;2023-07-13T05:26:25;17.50;81.00
42683;DHT22;28293;50.930;3.464;2023-07-13T05:28:51;17.50;80.90
42683;DHT22;28293;50.930;3.464;2023-07-13T05:31:17;17.60;80.90
42683;DHT22;28293;50.930;3.464;2023-07-13T05:33:42;17.60;80.50
42683;DHT22;28293;50.930;3.464;2023-07-13T05:36:08;17.70;80.50
42683;DHT22;28293;50.930;3.464;2023-07-13T05:38:34;17.70;80.40
42683;DHT22;28293;50.930;3.464;2023-07-13T05:41:00;17.80;80.30
42683;DHT22;28293;50.930;3.464;2023-07-13T05:43:26;17.80;80.00
42683;DHT22;28293;50.930;3.464;2023-07-13T05:45:53;17.80;80.20
42683;DHT22;28293;50.930;3.464;2023-07-13T05:48:19;17.80;80.10
42683;DHT22;28293;50.930;3.464;2023-07-13T05:50:45;17.80;80.00
42683;DHT22;28293;50.930;3.464;2023-07-13T05:53:11;17.90;80.10
42683;DHT22;28293;50.930;3.464;2023-07-13T05:55:41;18.00;79.90
42683;DHT22;28293;50.930;3.464;2023-07-13T05:58:07;18.00;79.70
42683;DHT22;28293;50.930;3.464;2023-07-13T06:00:33;18.10;79.30
42683;DHT22;28293;50.930;3.464;2023-07-13T06:02:59;18.10;79.30
42683;DHT22;28293;50.930;3.464;2023-07-13T06:05:25;18.10;79.10
42683;DHT22;28293;50.930;3.464;2023-07-13T06:07:50;18.30;78.70
42683;DHT22;28293;50.930;3.464;2023-07-13T06:10:16;18.30;78.70
42683;DHT22;28293;50.930;3.464;2023-07-13T06:12:42;18.30;78.60
42683;DHT22;28293;50.930;3.464;2023-07-13T06:15:08;18.50;78.30
42683;DHT22;28293;50.930;3.464;2023-07-13T06:17:34;18.50;77.60
42683;DHT22;28293;50.930;3.464;2023-07-13T06:20:00;18.60;78.00
42683;DHT22;28293;50.930;3.464;2023-07-13T06:22:25;18.70;77.40
42683;DHT22;28293;50.930;3.464;2023-07-13T06:24:51;18.70;77.00
42683;DHT22;28293;50.930;3.464;2023-07-13T06:27:17;19.00;76.70
42683;DHT22;28293;50.930;3.464;2023-07-13T06:29:43;19.00;76.10
42683;DHT22;28293;50.930;3.464;2023-07-13T06:32:10;19.00;76.30
42683;DHT22;28293;50.930;3.464;2023-07-13T06:34:36;19.10;76.10
42683;DHT22;28293;50.930;3.464;2023-07-13T06:37:02;19.30;76.00
42683;DHT22;28293;50.930;3.464;2023-07-13T06:39:27;19.40;75.30
42683;DHT22;28293;50.930;3.464;2023-07-13T06:41:53;19.60;74.50
42683;DHT22;28293;50.930;3.464;2023-07-13T06:44:19;19.70;73.90
42683;DHT22;28293;50.930;3.464;2023-07-13T06:46:44;19.90;73.20
42683;DHT22;28293;50.930;3.464;2023-07-13T06:49:10;19.80;73.50
42683;DHT22;28293;50.930;3.464;2023-07-13T06:51:36;20.00;73.70
42683;DHT22;28293;50.930;3.464;2023-07-13T06:54:01;20.20;73.20
42683;DHT22;28293;50.930;3.464;2023-07-13T06:56:27;20.50;72.20
42683;DHT22;28293;50.930;3.464;2023-07-13T06:58:52;20.60;71.30
42683;DHT22;28293;50.930;3.464;2023-07-13T07:01:18;20.60;71.50
42683;DHT22;28293;50.930;3.464;2023-07-13T07:03:44;20.70;71.00
42683;DHT22;28293;50.930;3.464;2023-07-13T07:06:20;21.10;70.40
42683;DHT22;28293;50.930;3.464;2023-07-13T07:08:47;21.20;69.40
42683;DHT22;28293;50.930;3.464;2023-07-13T07:11:14;21.10;69.70
42683;DHT22;28293;50.930;3.464;2023-07-13T07:13:40;21.30;68.80
42683;DHT22;28293;50.930;3.464;2023-07-13T07:16:06;21.00;69.40
42683;DHT22;28293;50.930;3.464;2023-07-13T07:18:32;20.70;70.30
42683;DHT22;28293;50.930;3.464;2023-07-13T07:20:58;20.40;70.70
42683;DHT22;28293;50.930;3.464;2023-07-13T07:23:23;20.40;70.70
42683;DHT22;28293;50.930;3.464;2023-07-13T07:25:49;20.50;71.20
42683;DHT22;28293;50.930;3.464;2023-07-13T07:28:16;20.80;71.30
42683;DHT22;28293;50.930;3.464;2023-07-13T07:30:48;21.10;69.80
42683;DHT22;28293;50.930;3.464;2023-07-13T07:33:15;21.40;68.90
42683;DHT22;28293;50.930;3.464;2023-07-13T07:35:42;21.90;67.60
42683;DHT22;28293;50.930;3.464;2023-07-13T07:38:08;21.90;66.50
42683;DHT22;28293;50.930;3.464;2023-07-13T07:40:39;21.70;65.60
42683;DHT22;28293;50.930;3.464;2023-07-13T07:43:07;21.30;68.10
42683;DHT22;28293;50.930;3.464;2023-07-13T07:45:32;21.30;67.90
42683;DHT22;28293;50.930;3.464;2023-07-13T07:47:58;21.30;67.80
42683;DHT22;28293;50.930;3.464;2023-07-13T07:50:25;21.60;67.60
42683;DHT22;28293;50.930;3.464;2023-07-13T07:52:51;21.50;67.30
42683;DHT22;28293;50.930;3.464;2023-07-13T07:55:17;21.70;66.50
42683;DHT22;28293;50.930;3.464;2023-07-13T07:57:42;21.70;66.60
42683;DHT22;28293;50.930;3.464;2023-07-13T08:00:09;21.80;66.90
42683;DHT22;28293;50.930;3.464;2023-07-13T08:02:35;22.00;66.10
42683;DHT22;28293;50.930;3.464;2023-07-13T08:05:00;22.50;65.30
42683;DHT22;28293;50.930;3.464;2023-07-13T08:07:26;22.80;63.10
42683;DHT22;28293;50.930;3.464;2023-07-13T08:09:52;22.90;62.30
42683;DHT22;28293;50.930;3.464;2023-07-13T08:12:18;22.90;62.30
42683;DHT22;28293;50.930;3.464;2023-07-13T08:14:44;22.80;62.30
42683;DHT22;28293;50.930;3.464;2023-07-13T08:17:09;22.60;62.20
42683;DHT22;28293;50.930;3.464;2023-07-13T08:19:35;22.60;63.30
42683;DHT22;28293;50.930;3.464;2023-07-13T08:22:01;22.30;63.20
42683;DHT22;28293;50.930;3.464;2023-07-13T08:24:26;22.20;64.00
42683;DHT22;28293;50.930;3.464;2023-07-13T08:26:52;22.20;63.00
42683;DHT22;28293;50.930;3.464;2023-07-13T08:29:18;22.50;61.90
42683;DHT22;28293;50.930;3.464;2023-07-13T08:31:44;22.70;61.40
42683;DHT22;28293;50.930;3.464;2023-07-13T08:34:10;23.10;60.40
42683;DHT22;28293;50.930;3.464;2023-07-13T08:36:36;23.40;60.40
42683;DHT22;28293;50.930;3.464;2023-07-13T08:39:02;23.60;59.40
42683;DHT22;28293;50.930;3.464;2023-07-13T08:41:28;23.70;59.00
42683;DHT22;28293;50.930;3.464;2023-07-13T08:43:58;23.70;58.20
42683;DHT22;28293;50.930;3.464;2023-07-13T08:46:44;23.60;56.20
42683;DHT22;28293;50.930;3.464;2023-07-13T08:49:15;23.50;57.20
42683;DHT22;28293;50.930;3.464;2023-07-13T08:54:32;22.80;59.90
42683;DHT22;28293;50.930;3.464;2023-07-13T08:57:17;22.80;58.60
42683;DHT22;28293;50.930;3.464;2023-07-13T08:59:43;22.90;59.40
42683;DHT22;28293;50.930;3.464;2023-07-13T09:04:59;23.00;59.50
42683;DHT22;28293;50.930;3.464;2023-07-13T09:07:41;23.00;59.80
42683;DHT22;28293;50.930;3.464;2023-07-13T09:10:15;22.90;59.50
42683;DHT22;28293;50.930;3.464;2023-07-13T09:15:41;22.60;60.40
42683;DHT22;28293;50.930;3.464;2023-07-13T09:18:28;22.30;61.70
42683;DHT22;28293;50.930;3.464;2023-07-13T09:21:00;22.80;59.70
42683;DHT22;28293;50.930;3.464;2023-07-13T09:23:29;22.90;60.20
42683;DHT22;28293;50.930;3.464;2023-07-13T09:26:18;22.90;59.20
42683;DHT22;28293;50.930;3.464;2023-07-13T09:28:53;23.30;57.20
42683;DHT22;28293;50.930;3.464;2023-07-13T09:31:28;23.50;56.90
42683;DHT22;28293;50.930;3.464;2023-07-13T09:33:56;23.60;56.50
42683;DHT22;28293;50.930;3.464;2023-07-13T09:36:28;24.10;55.00
42683;DHT22;28293;50.930;3.464;2023-07-13T09:42:07;24.00;55.30
42683;DHT22;28293;50.930;3.464;2023-07-13T09:44:50;23.80;56.40
42683;DHT22;28293;50.930;3.464;2023-07-13T09:47:22;24.10;55.30
42683;DHT22;28293;50.930;3.464;2023-07-13T09:49:55;24.20;54.20
42683;DHT22;28293;50.930;3.464;2023-07-13T09:52:21;24.40;53.10
42683;DHT22;28293;50.930;3.464;2023-07-13T09:54:49;24.60;53.10
42683;DHT22;28293;50.930;3.464;2023-07-13T09:57:22;24.70;52.90
42683;DHT22;28293;50.930;3.464;2023-07-13T09:59:50;24.50;52.30
42683;DHT22;28293;50.930;3.464;2023-07-13T10:05:02;24.50;52.40
42683;DHT22;28293;50.930;3.464;2023-07-13T10:07:29;24.90;52.60
42683;DHT22;28293;50.930;3.464;2023-07-13T10:09:57;25.10;51.50
42683;DHT22;28293;50.930;3.464;2023-07-13T10:12:23;25.10;51.80
42683;DHT22;28293;50.930;3.464;2023-07-13T10:14:52;25.50;51.90
42683;DHT22;28293;50.930;3.464;2023-07-13T10:17:29;25.60;50.30
42683;DHT22;28293;50.930;3.464;2023-07-13T10:20:04;25.60;49.30
42683;DHT22;28293;50.930;3.464;2023-07-13T10:22:50;25.80;49.30
42683;DHT22;28293;50.930;3.464;2023-07-13T10:25:22;26.10;47.40
42683;DHT22;28293;50.930;3.464;2023-07-13T10:28:00;26.10;47.30
42683;DHT22;28293;50.930;3.464;2023-07-13T10:30:32;25.80;48.20
42683;DHT22;28293;50.930;3.464;2023-07-13T10:33:02;25.20;48.90
42683;DHT22;28293;50.930;3.464;2023-07-13T10:35:30;24.40;51.20
42683;DHT22;28293;50.930;3.464;2023-07-13T10:38:22;23.20;57.60
42683;DHT22;28293;50.930;3.464;2023-07-13T10:41:03;21.80;64.60
42683;DHT22;28293;50.930;3.464;2023-07-13T10:43:35;21.30;70.20
42683;DHT22;28293;50.930;3.464;2023-07-13T10:46:10;20.90;72.40
42683;DHT22;28293;50.930;3.464;2023-07-13T10:48:37;20.40;72.70
42683;DHT22;28293;50.930;3.464;2023-07-13T10:51:06;20.10;75.50
42683;DHT22;28293;50.930;3.464;2023-07-13T10:53:37;20.00;74.50
42683;DHT22;28293;50.930;3.464;2023-07-13T10:56:19;20.10;75.30
42683;DHT22;28293;50.930;3.464;2023-07-13T10:58:45;20.10;76.10
42683;DHT22;28293;50.930;3.464;2023-07-13T11:01:16;20.30;74.20
42683;DHT22;28293;50.930;3.464;2023-07-13T11:03:56;20.70;75.00
42683;DHT22;28293;50.930;3.464;2023-07-13T11:11:58;22.10;70.00
42683;DHT22;28293;50.930;3.464;2023-07-13T11:14:42;22.40;72.00
42683;DHT22;28293;50.930;3.464;2023-07-13T11:25:26;23.10;65.50
42683;DHT22;28293;50.930;3.464;2023-07-13T11:30:40;23.00;66.00
42683;DHT22;28293;50.930;3.464;2023-07-13T11:35:57;23.40;64.40
42683;DHT22;28293;50.930;3.464;2023-07-13T11:41:10;23.60;63.90
42683;DHT22;28293;50.930;3.464;2023-07-13T11:43:39;24.00;63.30
42683;DHT22;28293;50.930;3.464;2023-07-13T11:46:23;24.20;62.50
42683;DHT22;28293;50.930;3.464;2023-07-13T11:48:50;24.30;62.60
42683;DHT22;28293;50.930;3.464;2023-07-13T11:51:32;24.70;60.30
42683;DHT22;28293;50.930;3.464;2023-07-13T11:54:03;24.70;60.40
42683;DHT22;28293;50.930;3.464;2023-07-13T11:56:29;24.50;60.70
42683;DHT22;28293;50.930;3.464;2023-07-13T11:59:04;23.90;61.50
42683;DHT22;28293;50.930;3.464;2023-07-13T12:01:32;23.60;64.00
42683;DHT22;28293;50.930;3.464;2023-07-13T12:04:02;23.70;62.60
42683;DHT22;28293;50.930;3.464;2023-07-13T12:06:32;23.50;62.80
42683;DHT22;28293;50.930;3.464;2023-07-13T12:08:59;23.40;63.30
42683;DHT22;28293;50.930;3.464;2023-07-13T12:11:26;23.40;61.70
42683;DHT22;28293;50.930;3.464;2023-07-13T12:13:52;23.50;61.90
42683;DHT22;28293;50.930;3.464;2023-07-13T12:16:30;23.60;61.50
42683;DHT22;28293;50.930;3.464;2023-07-13T12:18:59;24.00;60.90
42683;DHT22;28293;50.930;3.464;2023-07-13T12:21:39;24.60;60.10
42683;DHT22;28293;50.930;3.464;2023-07-13T12:24:05;25.30;57.60
42683;DHT22;28293;50.930;3.464;2023-07-13T12:26:39;25.70;57.40
42683;DHT22;28293;50.930;3.464;2023-07-13T12:29:06;25.80;53.00
42683;DHT22;28293;50.930;3.464;2023-07-13T12:31:40;25.60;50.50
42683;DHT22;28293;50.930;3.464;2023-07-13T12:34:11;25.10;49.00
42683;DHT22;28293;50.930;3.464;2023-07-13T12:36:55;24.80;51.10
42683;DHT22;28293;50.930;3.464;2023-07-13T12:39:45;25.10;50.60
42683;DHT22;28293;50.930;3.464;2023-07-13T12:44:42;25.40;49.40
42683;DHT22;28293;50.930;3.464;2023-07-13T12:47:13;25.40;49.30
42683;DHT22;28293;50.930;3.464;2023-07-13T12:49:47;25.60;50.90
42683;DHT22;28293;50.930;3.464;2023-07-13T12:52:14;25.40;49.60
42683;DHT22;28293;50.930;3.464;2023-07-13T12:54:40;24.70;49.90
42683;DHT22;28293;50.930;3.464;2023-07-13T12:57:12;25.00;50.00
42683;DHT22;28293;50.930;3.464;2023-07-13T12:59:41;25.40;49.50
42683;DHT22;28293;50.930;3.464;2023-07-13T13:02:30;25.40;48.30
42683;DHT22;28293;50.930;3.464;2023-07-13T13:04:58;26.00;47.70
42683;DHT22;28293;50.930;3.464;2023-07-13T13:07:25;26.60;47.60
42683;DHT22;28293;50.930;3.464;2023-07-13T13:09:51;26.20;46.50
42683;DHT22;28293;50.930;3.464;2023-07-13T13:12:19;26.40;46.10
42683;DHT22;28293;50.930;3.464;2023-07-13T13:14:44;25.80;46.80
42683;DHT22;28293;50.930;3.464;2023-07-13T13:17:30;25.60;47.10
42683;DHT22;28293;50.930;3.464;2023-07-13T13:19:56;25.00;46.00
42683;DHT22;28293;50.930;3.464;2023-07-13T13:22:22;25.40;46.20
42683;DHT22;28293;50.930;3.464;2023-07-13T13:24:48;25.50;45.90
42683;DHT22;28293;50.930;3.464;2023-07-13T13:27:19;25.20;47.50
42683;DHT22;28293;50.930;3.464;2023-07-13T13:29:46;25.40;46.80
42683;DHT22;28293;50.930;3.464;2023-07-13T13:32:13;25.50;46.60
42683;DHT22;28293;50.930;3.464;2023-07-13T13:34:40;25.70;47.10
42683;DHT22;28293;50.930;3.464;2023-07-13T13:37:26;25.20;47.30
42683;DHT22;28293;50.930;3.464;2023-07-13T13:39:52;25.00;47.60
42683;DHT22;28293;50.930;3.464;2023-07-13T13:42:19;24.80;48.60
42683;DHT22;28293;50.930;3.464;2023-07-13T13:44:46;25.00;48.70
42683;DHT22;28293;50.930;3.464;2023-07-13T13:47:29;24.90;48.30
42683;DHT22;28293;50.930;3.464;2023-07-13T13:49:55;25.00;46.70
42683;DHT22;28293;50.930;3.464;2023-07-13T13:52:21;25.00;46.40
42683;DHT22;28293;50.930;3.464;2023-07-13T13:54:47;25.20;46.20
42683;DHT22;28293;50.930;3.464;2023-07-13T13:57:14;25.30;44.80
42683;DHT22;28293;50.930;3.464;2023-07-13T13:59:39;25.50;45.20
42683;DHT22;28293;50.930;3.464;2023-07-13T14:02:35;25.60;44.10
42683;DHT22;28293;50.930;3.464;2023-07-13T14:05:02;26.10;44.40
42683;DHT22;28293;50.930;3.464;2023-07-13T14:07:28;26.10;44.70
42683;DHT22;28293;50.930;3.464;2023-07-13T14:09:58;25.60;44.50
42683;DHT22;28293;50.930;3.464;2023-07-13T14:12:26;25.10;45.20
42683;DHT22;28293;50.930;3.464;2023-07-13T14:14:55;24.80;45.60
42683;DHT22;28293;50.930;3.464;2023-07-13T14:17:22;24.70;46.00
42683;DHT22;28293;50.930;3.464;2023-07-13T14:19:52;25.10;45.90
42683;DHT22;28293;50.930;3.464;2023-07-13T14:22:23;25.10;45.30
42683;DHT22;28293;50.930;3.464;2023-07-13T14:24:51;25.30;45.50
42683;DHT22;28293;50.930;3.464;2023-07-13T14:27:17;25.60;44.60
42683;DHT22;28293;50.930;3.464;2023-07-13T14:29:42;25.50;45.00
42683;DHT22;28293;50.930;3.464;2023-07-13T14:32:12;25.30;45.60
42683;DHT22;28293;50.930;3.464;2023-07-13T14:34:38;25.50;44.50
42683;DHT22;28293;50.930;3.464;2023-07-13T14:37:04;25.60;44.40
42683;DHT22;28293;50.930;3.464;2023-07-13T14:39:31;25.80;43.50
42683;DHT22;28293;50.930;3.464;2023-07-13T14:41:57;26.30;43.70
42683;DHT22;28293;50.930;3.464;2023-07-13T14:44:28;26.00;44.70
42683;DHT22;28293;50.930;3.464;2023-07-13T14:46:55;25.50;44.30
42683;DHT22;28293;50.930;3.464;2023-07-13T14:49:37;25.10;45.60
42683;DHT22;28293;50.930;3.464;2023-07-13T14:52:15;24.90;46.20
42683;DHT22;28293;50.930;3.464;2023-07-13T14:54:42;25.10;45.80
42683;DHT22;28293;50.930;3.464;2023-07-13T14:57:14;25.50;44.80
42683;DHT22;28293;50.930;3.464;2023-07-13T14:59:40;26.00;43.30
42683;DHT22;28293;50.930;3.464;2023-07-13T15:02:30;26.00;43.20
42683;DHT22;28293;50.930;3.464;2023-07-13T15:04:57;26.20;42.60
42683;DHT22;28293;50.930;3.464;2023-07-13T15:07:24;26.00;41.70
42683;DHT22;28293;50.930;3.464;2023-07-13T15:09:50;26.40;41.80
42683;DHT22;28293;50.930;3.464;2023-07-13T15:12:17;26.50;41.00
42683;DHT22;28293;50.930;3.464;2023-07-13T15:14:42;26.70;41.30
42683;DHT22;28293;50.930;3.464;2023-07-13T15:17:28;26.30;42.20
42683;DHT22;28293;50.930;3.464;2023-07-13T15:19:57;26.00;43.20
42683;DHT22;28293;50.930;3.464;2023-07-13T15:22:22;25.50;42.70
42683;DHT22;28293;50.930;3.464;2023-07-13T15:24:49;25.60;42.60
42683;DHT22;28293;50.930;3.464;2023-07-13T15:27:15;26.10;42.60
42683;DHT22;28293;50.930;3.464;2023-07-13T15:29:40;26.40;41.20
42683;DHT22;28293;50.930;3.464;2023-07-13T15:32:17;26.20;41.10
42683;DHT22;28293;50.930;3.464;2023-07-13T15:34:44;26.10;41.40
42683;DHT22;28293;50.930;3.464;2023-07-13T15:37:15;25.90;41.80
42683;DHT22;28293;50.930;3.464;2023-07-13T15:39:41;25.90;42.70
42683;DHT22;28293;50.930;3.464;2023-07-13T15:42:18;26.20;41.90
42683;DHT22;28293;50.930;3.464;2023-07-13T15:44:44;26.40;41.40
42683;DHT22;28293;50.930;3.464;2023-07-13T15:47:14;26.50;40.70
42683;DHT22;28293;50.930;3.464;2023-07-13T15:49:41;26.40;40.60
42683;DHT22;28293;50.930;3.464;2023-07-13T15:52:20;26.50;40.10
42683;DHT22;28293;50.930;3.464;2023-07-13T15:54:47;25.60;41.70
42683;DHT22;28293;50.930;3.464;2023-07-13T15:57:14;25.50;43.00
42683;DHT22;28293;50.930;3.464;2023-07-13T15:59:40;25.60;43.50
42683;DHT22;28293;50.930;3.464;2023-07-13T16:02:33;25.70;43.30
42683;DHT22;28293;50.930;3.464;2023-07-13T16:04:58;25.60;43.40
42683;DHT22;28293;50.930;3.464;2023-07-13T16:07:24;25.50;43.50
42683;DHT22;28293;50.930;3.464;2023-07-13T16:09:51;25.20;44.30
42683;DHT22;28293;50.930;3.464;2023-07-13T16:12:17;25.20;44.40
42683;DHT22;28293;50.930;3.464;2023-07-13T16:14:43;25.20;44.10
42683;DHT22;28293;50.930;3.464;2023-07-13T16:17:10;25.20;44.20
42683;DHT22;28293;50.930;3.464;2023-07-13T16:19:36;25.80;43.10
42683;DHT22;28293;50.930;3.464;2023-07-13T16:22:02;26.10;41.80